Time;durP1;ratioP1;P1;durP2;ratioP2;P2;SDS_P1;SDS_P2;PMS_P1;PMS_P2;Temp;Humidity;BMP_temperature;BMP_pressure;BME280_temperature;BME280_humidity;BME280_pressure;Samples;Min_cycle;Max_cycle;Signal;HPM_P1;HPM_P2
2023/06/09 00:02:18;;;;;;;5.72;5.03;;;;;;;;;;5085810;28;20610;-52
2023/06/09 00:04:45;;;;;;;6.57;5.50;;;;;;;;;;5086039;28;20610;-52
2023/06/09 00:07:16;;;;;;;6.47;5.88;;;;;;;;;;5083852;28;20295;-52
2023/06/09 00:09:42;;;;;;;5.70;5.15;;;;;;;;;;5085906;28;20273;-51
2023/06/09 00:12:09;;;;;;;6.20;5.18;;;;;;;;;;5087129;28;20236;-52
2023/06/09 00:14:37;;;;;;;7.78;5.57;;;;;;;;;;5081750;28;20230;-52
2023/06/09 00:17:07;;;;;;;6.30;5.75;;;;;;;;;;5085223;28;20235;-52
2023/06/09 00:19:34;;;;;;;6.30;5.35;;;;;;;;;;5084872;28;20325;-52
2023/06/09 00:22:01;;;;;;;7.00;5.85;;;;;;;;;;5076946;28;20226;-51
2023/06/09 00:24:27;;;;;;;6.07;5.32;;;;;;;;;;5085106;28;20223;-52
2023/06/09 00:26:54;;;;;;;6.53;5.85;;;;;;;;;;5083717;28;20234;-51
2023/06/09 00:29:22;;;;;;;7.65;5.57;;;;;;;;;;5083779;28;20237;-51
2023/06/09 00:31:50;;;;;;;8.25;6.00;;;;;;;;;;5080325;28;20237;-52
2023/06/09 00:34:17;;;;;;;6.85;5.50;;;;;;;;;;5083713;28;20230;-51
2023/06/09 00:36:44;;;;;;;5.60;5.15;;;;;;;;;;5076368;28;20227;-52
2023/06/09 00:39:10;;;;;;;7.20;6.10;;;;;;;;;;5083131;28;20295;-52
2023/06/09 00:41:37;;;;;;;6.75;6.15;;;;;;;;;;5082800;28;20242;-52
2023/06/09 00:44:04;;;;;;;7.47;6.55;;;;;;;;;;5080545;28;20633;-51
2023/06/09 00:46:32;;;;;;;6.88;5.55;;;;;;;;;;5071555;28;20237;-51
2023/06/09 00:49:00;;;;;;;7.68;5.80;;;;;;;;;;5082126;28;20227;-52
2023/06/09 00:51:27;;;;;;;7.70;5.85;;;;;;;;;;5079594;28;20227;-52
2023/06/09 00:53:54;;;;;;;9.55;6.20;;;;;;;;;;5079276;28;20230;-51
2023/06/09 00:56:23;;;;;;;8.68;6.35;;;;;;;;;;5082823;28;20671;-53
2023/06/09 00:58:50;;;;;;;10.02;6.13;;;;;;;;;;5081872;28;20249;-52
2023/06/09 01:01:16;;;;;;;7.05;6.32;;;;;;;;;;5076600;28;20218;-51
2023/06/09 01:03:43;;;;;;;6.55;5.63;;;;;;;;;;5079795;28;20303;-51
2023/06/09 01:06:14;;;;;;;8.68;5.57;;;;;;;;;;5083313;28;20226;-52
2023/06/09 01:08:43;;;;;;;6.40;5.80;;;;;;;;;;5080213;28;20329;-51
2023/06/09 01:11:13;;;;;;;8.80;6.22;;;;;;;;;;5081558;28;20222;-51
2023/06/09 01:13:43;;;;;;;6.47;5.90;;;;;;;;;;5069058;28;20738;-51
2023/06/09 01:16:12;;;;;;;7.20;5.93;;;;;;;;;;5071436;28;20222;-51
2023/06/09 01:18:42;;;;;;;6.78;6.13;;;;;;;;;;5066700;28;20238;-53
2023/06/09 01:21:12;;;;;;;7.03;6.43;;;;;;;;;;5080715;28;20317;-54
2023/06/09 01:23:44;;;;;;;8.13;6.03;;;;;;;;;;5068139;28;20271;-52
2023/06/09 01:26:13;;;;;;;7.57;6.10;;;;;;;;;;5072107;28;20242;-51
2023/06/09 01:28:43;;;;;;;8.00;6.65;;;;;;;;;;5070020;28;20234;-52
2023/06/09 01:31:11;;;;;;;9.38;6.93;;;;;;;;;;5068195;28;20375;-54
2023/06/09 01:33:38;;;;;;;10.32;6.38;;;;;;;;;;5080896;28;20230;-51
2023/06/09 01:36:05;;;;;;;6.72;6.13;;;;;;;;;;5079131;28;20314;-51
2023/06/09 01:38:32;;;;;;;7.45;6.22;;;;;;;;;;5077706;28;20234;-52
2023/06/09 01:40:59;;;;;;;8.20;6.78;;;;;;;;;;5080137;28;20321;-53
2023/06/09 01:43:27;;;;;;;8.00;7.18;;;;;;;;;;5072190;28;20294;-52
2023/06/09 01:45:53;;;;;;;7.15;6.43;;;;;;;;;;5072928;28;20287;-51
2023/06/09 01:48:23;;;;;;;7.95;7.25;;;;;;;;;;5076933;28;20244;-51
2023/06/09 01:50:56;;;;;;;9.38;7.40;;;;;;;;;;5078936;28;20649;-52
2023/06/09 01:53:26;;;;;;;8.73;6.32;;;;;;;;;;5078344;28;20318;-53
2023/06/09 01:55:54;;;;;;;7.32;6.72;;;;;;;;;;5078816;28;20262;-53
2023/06/09 01:58:23;;;;;;;7.07;6.38;;;;;;;;;;5083121;28;20606;-52
2023/06/09 02:00:53;;;;;;;11.52;6.90;;;;;;;;;;5074674;28;20235;-53
2023/06/09 02:03:21;;;;;;;9.38;7.00;;;;;;;;;;5079753;28;20287;-52
2023/06/09 02:05:48;;;;;;;7.72;6.90;;;;;;;;;;5084844;28;20642;-52
2023/06/09 02:08:15;;;;;;;9.00;6.82;;;;;;;;;;5083065;28;20231;-53
2023/06/09 02:10:42;;;;;;;8.07;7.15;;;;;;;;;;5078030;28;20333;-53
2023/06/09 02:13:12;;;;;;;6.72;6.00;;;;;;;;;;5075470;28;20240;-51
2023/06/09 02:15:39;;;;;;;9.05;7.15;;;;;;;;;;5076831;28;20235;-52
2023/06/09 02:18:07;;;;;;;8.05;6.13;;;;;;;;;;5080354;28;20297;-52
2023/06/09 02:20:33;;;;;;;8.05;7.22;;;;;;;;;;5082213;28;20230;-52
2023/06/09 02:23:00;;;;;;;8.75;7.93;;;;;;;;;;5070022;27;20730;-51
2023/06/09 02:25:28;;;;;;;10.10;7.53;;;;;;;;;;5072325;28;20231;-53
2023/06/09 02:27:54;;;;;;;8.38;6.80;;;;;;;;;;5078373;28;20787;-52
2023/06/09 02:30:21;;;;;;;8.45;7.32;;;;;;;;;;5082703;28;20307;-53
2023/06/09 02:32:48;;;;;;;8.15;7.35;;;;;;;;;;5086290;28;20648;-53
2023/06/09 02:35:16;;;;;;;7.28;6.57;;;;;;;;;;5076987;28;20227;-53
2023/06/09 02:37:43;;;;;;;8.27;6.93;;;;;;;;;;5081281;28;20251;-51
2023/06/09 02:40:09;;;;;;;7.75;7.05;;;;;;;;;;5084963;27;20234;-51
2023/06/09 02:42:36;;;;;;;9.05;8.05;;;;;;;;;;5077091;28;20234;-52
2023/06/09 02:45:03;;;;;;;10.88;7.40;;;;;;;;;;5076809;28;20223;-58
2023/06/09 02:47:30;;;;;;;9.23;8.32;;;;;;;;;;5082319;28;20223;-52
2023/06/09 02:49:56;;;;;;;10.15;7.85;;;;;;;;;;5085058;28;20237;-52
2023/06/09 02:52:28;;;;;;;9.38;7.60;;;;;;;;;;5083644;27;20295;-52
2023/06/09 02:54:54;;;;;;;8.68;7.40;;;;;;;;;;5081503;28;20258;-52
2023/06/09 02:57:21;;;;;;;10.68;7.18;;;;;;;;;;5084184;28;20223;-51
2023/06/09 02:59:48;;;;;;;10.30;7.30;;;;;;;;;;5083518;28;20226;-52
2023/06/09 03:02:15;;;;;;;9.18;8.25;;;;;;;;;;5082463;28;20343;-53
2023/06/09 03:04:42;;;;;;;8.27;7.35;;;;;;;;;;5084180;28;20317;-51
2023/06/09 03:07:13;;;;;;;8.95;7.95;;;;;;;;;;5088208;28;20711;-51
2023/06/09 03:09:41;;;;;;;8.85;7.45;;;;;;;;;;5087561;28;20728;-51
2023/06/09 03:12:08;;;;;;;7.35;6.68;;;;;;;;;;5084039;28;20238;-51
2023/06/09 03:14:35;;;;;;;8.30;7.05;;;;;;;;;;5083331;28;20238;-51
2023/06/09 03:17:03;;;;;;;9.57;7.28;;;;;;;;;;5083578;28;20257;-51
2023/06/09 03:19:30;;;;;;;11.77;7.20;;;;;;;;;;5084234;28;20750;-51
2023/06/09 03:21:57;;;;;;;7.80;7.03;;;;;;;;;;5077284;28;20375;-51
2023/06/09 03:24:24;;;;;;;8.52;7.20;;;;;;;;;;5083666;28;20250;-52
2023/06/09 03:26:52;;;;;;;10.00;7.40;;;;;;;;;;5083649;28;20299;-53
2023/06/09 03:29:19;;;;;;;10.82;8.52;;;;;;;;;;5078795;28;20227;-53
2023/06/09 03:31:46;;;;;;;8.15;7.07;;;;;;;;;;5081339;28;20226;-51
2023/06/09 03:34:12;;;;;;;11.85;8.02;;;;;;;;;;5080666;28;20226;-51
2023/06/09 03:36:39;;;;;;;11.10;8.90;;;;;;;;;;5084162;28;20239;-51
2023/06/09 03:39:06;;;;;;;8.80;7.95;;;;;;;;;;5078777;28;20223;-52
2023/06/09 03:41:33;;;;;;;8.48;7.68;;;;;;;;;;5075288;28;20231;-51
2023/06/09 03:44:01;;;;;;;9.23;7.25;;;;;;;;;;5081269;28;20732;-52
2023/06/09 03:46:27;;;;;;;8.20;7.22;;;;;;;;;;5078474;28;20219;-52
2023/06/09 03:48:54;;;;;;;9.63;7.65;;;;;;;;;;5083083;28;20226;-51
2023/06/09 03:51:21;;;;;;;8.55;7.75;;;;;;;;;;5076707;28;20223;-51
2023/06/09 03:53:47;;;;;;;8.80;8.00;;;;;;;;;;5070942;28;20257;-52
2023/06/09 03:56:14;;;;;;;8.80;7.75;;;;;;;;;;5073890;28;20242;-52
2023/06/09 03:58:41;;;;;;;8.25;7.43;;;;;;;;;;5079115;28;20721;-51
2023/06/09 04:01:10;;;;;;;7.38;6.65;;;;;;;;;;5082825;28;20271;-51
2023/06/09 04:03:37;;;;;;;10.48;7.53;;;;;;;;;;5082285;28;20239;-53
2023/06/09 04:06:04;;;;;;;7.50;6.63;;;;;;;;;;5083209;28;20226;-51
2023/06/09 04:08:30;;;;;;;8.85;7.05;;;;;;;;;;5078194;28;20234;-51
2023/06/09 04:10:57;;;;;;;6.97;6.35;;;;;;;;;;5081573;27;20279;-51
2023/06/09 04:13:24;;;;;;;11.10;6.40;;;;;;;;;;5082020;28;20236;-52
2023/06/09 04:15:50;;;;;;;6.47;5.88;;;;;;;;;;5076110;28;20239;-51
2023/06/09 04:18:19;;;;;;;7.53;6.60;;;;;;;;;;5075477;28;20295;-52
2023/06/09 04:20:45;;;;;;;7.07;6.38;;;;;;;;;;5075741;28;20264;-51
2023/06/09 04:23:12;;;;;;;7.28;6.55;;;;;;;;;;5074282;27;20653;-52
2023/06/09 04:25:40;;;;;;;7.68;6.75;;;;;;;;;;5081272;28;20253;-53
2023/06/09 04:28:08;;;;;;;7.70;6.38;;;;;;;;;;5081495;27;20257;-51
2023/06/09 04:30:35;;;;;;;6.75;6.13;;;;;;;;;;5081634;28;20603;-51
2023/06/09 04:33:03;;;;;;;6.85;6.13;;;;;;;;;;5080650;28;20230;-54
2023/06/09 04:35:31;;;;;;;6.20;5.60;;;;;;;;;;5082544;28;20234;-52
2023/06/09 04:38:00;;;;;;;7.07;6.47;;;;;;;;;;5078979;28;20607;-51
2023/06/09 04:40:29;;;;;;;8.20;6.53;;;;;;;;;;5080428;28;20241;-54
2023/06/09 04:42:57;;;;;;;5.85;5.32;;;;;;;;;;5069743;28;20230;-54
2023/06/09 04:45:27;;;;;;;6.70;6.00;;;;;;;;;;5071198;28;20230;-52
2023/06/09 04:47:55;;;;;;;5.45;4.80;;;;;;;;;;5081875;28;20226;-52
2023/06/09 04:50:22;;;;;;;9.10;5.75;;;;;;;;;;5082543;28;20234;-53
2023/06/09 04:52:51;;;;;;;6.13;5.47;;;;;;;;;;5082928;28;20795;-52
2023/06/09 04:55:17;;;;;;;7.28;5.25;;;;;;;;;;5082641;28;20438;-52
2023/06/09 04:57:45;;;;;;;16.13;5.68;;;;;;;;;;5079200;28;20615;-52
2023/06/09 05:00:16;;;;;;;6.20;5.60;;;;;;;;;;5084210;28;20315;-51
2023/06/09 05:02:44;;;;;;;7.50;5.18;;;;;;;;;;5081623;28;20266;-52
2023/06/09 05:05:12;;;;;;;4.95;4.05;;;;;;;;;;5082327;28;20781;-53
2023/06/09 05:07:39;;;;;;;5.93;4.32;;;;;;;;;;5081600;28;20296;-51
2023/06/09 05:10:09;;;;;;;5.28;4.45;;;;;;;;;;5073369;28;20230;-52
2023/06/09 05:12:35;;;;;;;5.18;4.25;;;;;;;;;;5076695;28;20235;-54
2023/06/09 05:15:02;;;;;;;4.35;3.90;;;;;;;;;;5079872;28;20237;-51
2023/06/09 05:17:29;;;;;;;4.28;3.90;;;;;;;;;;5079344;28;20641;-52
2023/06/09 05:19:55;;;;;;;4.70;4.30;;;;;;;;;;5081139;28;20301;-51
2023/06/09 05:22:22;;;;;;;4.35;4.00;;;;;;;;;;5079304;28;20234;-51
2023/06/09 05:24:48;;;;;;;4.95;4.50;;;;;;;;;;5076255;28;20321;-51
2023/06/09 05:27:16;;;;;;;4.00;3.63;;;;;;;;;;5074112;28;20656;-51
2023/06/09 05:29:43;;;;;;;5.57;3.78;;;;;;;;;;5077216;28;20234;-51
2023/06/09 05:32:10;;;;;;;4.88;3.78;;;;;;;;;;5079943;28;20620;-52
2023/06/09 05:34:36;;;;;;;7.10;3.90;;;;;;;;;;5071826;28;20245;-50
2023/06/09 05:37:04;;;;;;;4.78;3.50;;;;;;;;;;5077039;28;20231;-51
2023/06/09 05:39:30;;;;;;;3.92;3.53;;;;;;;;;;5081933;28;20238;-52
2023/06/09 05:41:57;;;;;;;6.72;3.63;;;;;;;;;;5080429;28;20311;-52
2023/06/09 05:44:25;;;;;;;5.03;3.65;;;;;;;;;;5081763;28;20230;-54
2023/06/09 05:46:51;;;;;;;4.13;3.72;;;;;;;;;;5078695;28;20790;-52
2023/06/09 05:49:18;;;;;;;3.95;3.55;;;;;;;;;;5075533;28;20231;-50
2023/06/09 05:51:45;;;;;;;3.25;2.95;;;;;;;;;;5080029;28;20231;-51
2023/06/09 05:54:12;;;;;;;2.92;2.67;;;;;;;;;;5082883;28;20226;-54
2023/06/09 05:56:38;;;;;;;4.78;3.35;;;;;;;;;;5080341;28;20322;-54
2023/06/09 05:59:05;;;;;;;4.68;3.38;;;;;;;;;;5077046;28;20229;-50
2023/06/09 06:01:34;;;;;;;4.63;4.20;;;;;;;;;;5081447;28;20292;-53
2023/06/09 06:04:01;;;;;;;4.20;3.80;;;;;;;;;;5084306;28;20597;-52
2023/06/09 06:06:27;;;;;;;6.88;3.30;;;;;;;;;;5080040;28;20235;-51
2023/06/09 06:08:54;;;;;;;4.75;3.75;;;;;;;;;;5083462;28;20873;-53
2023/06/09 06:11:21;;;;;;;5.05;4.10;;;;;;;;;;5083129;28;20226;-51
2023/06/09 06:13:47;;;;;;;5.50;3.75;;;;;;;;;;5081930;28;20238;-51
2023/06/09 06:16:14;;;;;;;7.30;5.13;;;;;;;;;;5085850;28;20522;-52
2023/06/09 06:18:42;;;;;;;4.10;3.63;;;;;;;;;;5081188;28;20231;-54
2023/06/09 06:21:11;;;;;;;6.28;3.40;;;;;;;;;;5078336;28;20704;-52
2023/06/09 06:23:38;;;;;;;4.40;3.90;;;;;;;;;;5079828;28;20719;-51
2023/06/09 06:26:04;;;;;;;12.60;7.20;;;;;;;;;;5082990;28;20239;-51
2023/06/09 06:28:31;;;;;;;6.03;4.32;;;;;;;;;;5085857;28;20305;-51
2023/06/09 06:30:57;;;;;;;5.88;3.55;;;;;;;;;;5081755;28;20314;-53
2023/06/09 06:33:29;;;;;;;6.25;3.97;;;;;;;;;;5081596;28;20237;-53
2023/06/09 06:35:57;;;;;;;3.97;3.55;;;;;;;;;;5078571;28;20223;-52
2023/06/09 06:38:24;;;;;;;4.72;3.60;;;;;;;;;;5080939;28;20666;-52
2023/06/09 06:40:51;;;;;;;6.45;4.13;;;;;;;;;;5081435;28;20234;-52
2023/06/09 06:43:17;;;;;;;7.10;3.33;;;;;;;;;;5082529;28;20845;-53
2023/06/09 06:45:44;;;;;;;6.10;3.67;;;;;;;;;;5079531;28;20241;-52
2023/06/09 06:48:11;;;;;;;4.78;3.70;;;;;;;;;;5080905;28;20222;-53
2023/06/09 06:50:40;;;;;;;7.78;3.90;;;;;;;;;;5076969;28;20798;-52
2023/06/09 06:53:08;;;;;;;6.22;3.83;;;;;;;;;;5080964;28;20819;-51
2023/06/09 06:55:35;;;;;;;5.35;4.20;;;;;;;;;;5081040;28;20257;-52
2023/06/09 06:58:02;;;;;;;12.10;5.30;;;;;;;;;;5082891;28;20230;-52
2023/06/09 07:00:28;;;;;;;7.40;4.93;;;;;;;;;;5081273;28;20251;-52
2023/06/09 07:02:55;;;;;;;8.85;4.40;;;;;;;;;;5080715;28;20241;-50
2023/06/09 07:05:22;;;;;;;5.53;4.05;;;;;;;;;;5087925;28;20231;-51
2023/06/09 07:07:48;;;;;;;6.05;4.10;;;;;;;;;;5081838;28;20233;-51
2023/06/09 07:10:17;;;;;;;5.75;3.58;;;;;;;;;;5085486;28;20230;-53
2023/06/09 07:12:44;;;;;;;6.55;3.53;;;;;;;;;;5081103;28;20241;-51
2023/06/09 07:15:10;;;;;;;4.05;3.65;;;;;;;;;;5077995;28;20801;-50
2023/06/09 07:17:37;;;;;;;4.80;3.70;;;;;;;;;;5082878;28;20284;-52
2023/06/09 07:20:05;;;;;;;7.97;4.50;;;;;;;;;;5084748;28;20657;-53
2023/06/09 07:22:33;;;;;;;5.82;4.00;;;;;;;;;;5080098;28;20258;-52
2023/06/09 07:25:00;;;;;;;10.00;4.93;;;;;;;;;;5086120;28;20231;-51
2023/06/09 07:27:28;;;;;;;7.43;3.85;;;;;;;;;;5083662;28;20234;-52
2023/06/09 07:29:56;;;;;;;4.10;3.38;;;;;;;;;;5085325;28;20600;-53
2023/06/09 07:32:22;;;;;;;5.47;4.35;;;;;;;;;;5083195;28;20318;-53
2023/06/09 07:34:50;;;;;;;5.03;4.28;;;;;;;;;;5078378;28;20238;-53
2023/06/09 07:37:17;;;;;;;4.68;4.05;;;;;;;;;;5078016;28;20231;-51
2023/06/09 07:39:43;;;;;;;8.88;6.60;;;;;;;;;;5080332;28;20238;-53
2023/06/09 07:42:10;;;;;;;11.13;8.20;;;;;;;;;;5082339;28;20733;-52
2023/06/09 07:44:39;;;;;;;5.32;4.65;;;;;;;;;;5082801;28;20223;-54
2023/06/09 07:47:06;;;;;;;6.90;4.18;;;;;;;;;;5084695;28;20236;-55
2023/06/09 07:49:33;;;;;;;7.70;4.10;;;;;;;;;;5086947;27;20230;-51
2023/06/09 07:51:59;;;;;;;4.60;4.00;;;;;;;;;;5073887;28;20242;-51
2023/06/09 07:54:26;;;;;;;6.55;4.18;;;;;;;;;;5077410;28;20235;-54
2023/06/09 07:56:53;;;;;;;5.18;4.25;;;;;;;;;;5078710;28;20230;-52
2023/06/09 07:59:20;;;;;;;3.88;3.35;;;;;;;;;;5082650;28;20235;-51
2023/06/09 08:01:48;;;;;;;4.68;3.83;;;;;;;;;;5085274;28;20226;-54
2023/06/09 08:04:15;;;;;;;6.32;4.78;;;;;;;;;;5082280;28;20284;-50
2023/06/09 08:06:42;;;;;;;5.95;4.28;;;;;;;;;;5083413;28;20322;-52
2023/06/09 08:09:09;;;;;;;9.20;4.43;;;;;;;;;;5084914;28;20665;-54
2023/06/09 08:11:35;;;;;;;10.48;4.88;;;;;;;;;;5077415;28;20724;-53
2023/06/09 08:14:02;;;;;;;5.75;3.97;;;;;;;;;;5074257;28;20255;-53
2023/06/09 08:16:30;;;;;;;5.90;5.03;;;;;;;;;;5078009;28;20234;-51
2023/06/09 08:18:58;;;;;;;4.18;3.50;;;;;;;;;;5082694;28;20230;-53
2023/06/09 08:21:24;;;;;;;8.35;3.60;;;;;;;;;;5078670;28;20227;-58
2023/06/09 08:23:52;;;;;;;5.57;3.83;;;;;;;;;;5080255;28;20237;-54
2023/06/09 08:26:18;;;;;;;6.63;3.47;;;;;;;;;;5077587;28;20318;-52
2023/06/09 08:28:44;;;;;;;5.65;3.40;;;;;;;;;;5082177;28;20240;-52
2023/06/09 08:31:11;;;;;;;4.55;4.05;;;;;;;;;;5081328;28;20609;-50
2023/06/09 08:33:37;;;;;;;6.20;4.28;;;;;;;;;;5084321;28;20325;-53
2023/06/09 08:36:05;;;;;;;4.47;4.07;;;;;;;;;;5084872;28;20343;-52
2023/06/09 08:38:32;;;;;;;5.82;4.72;;;;;;;;;;5079586;28;20227;-52
2023/06/09 08:41:02;;;;;;;11.25;9.23;;;;;;;;;;5083331;28;20230;-52
2023/06/09 08:43:29;;;;;;;5.47;4.72;;;;;;;;;;5075889;28;20245;-53
2023/06/09 08:45:56;;;;;;;6.20;4.30;;;;;;;;;;5075207;28;20608;-52
2023/06/09 08:48:22;;;;;;;5.18;4.68;;;;;;;;;;5079617;28;20237;-52
2023/06/09 08:50:49;;;;;;;4.45;3.95;;;;;;;;;;5083989;28;20759;-50
2023/06/09 08:53:17;;;;;;;5.47;3.95;;;;;;;;;;5083460;28;22299;-52
2023/06/09 08:55:44;;;;;;;14.45;5.40;;;;;;;;;;5082200;28;20262;-52
2023/06/09 08:58:11;;;;;;;10.07;4.75;;;;;;;;;;5082767;28;20230;-53
2023/06/09 09:00:39;;;;;;;7.53;4.65;;;;;;;;;;5077730;28;20963;-54
2023/06/09 09:03:05;;;;;;;12.77;4.63;;;;;;;;;;5081098;28;20230;-51
2023/06/09 09:05:32;;;;;;;4.10;3.80;;;;;;;;;;5084487;28;20238;-52
2023/06/09 09:07:58;;;;;;;4.07;3.78;;;;;;;;;;5084792;28;20665;-51
2023/06/09 09:10:28;;;;;;;4.80;4.00;;;;;;;;;;5085417;28;20241;-54
2023/06/09 09:12:54;;;;;;;5.60;4.28;;;;;;;;;;5078848;28;20234;-51
2023/06/09 09:15:24;;;;;;;11.50;4.22;;;;;;;;;;5084688;28;20234;-53
2023/06/09 09:17:50;;;;;;;4.35;4.05;;;;;;;;;;5082050;28;20241;-50
2023/06/09 09:20:17;;;;;;;5.25;3.97;;;;;;;;;;5080466;28;20309;-54
2023/06/09 09:22:44;;;;;;;6.30;3.78;;;;;;;;;;5083818;28;20304;-52
2023/06/09 09:25:10;;;;;;;7.28;5.10;;;;;;;;;;5087784;28;20239;-52
2023/06/09 09:27:38;;;;;;;6.18;3.78;;;;;;;;;;5083940;28;20226;-52
2023/06/09 09:30:05;;;;;;;5.40;4.13;;;;;;;;;;5087179;28;20226;-56
2023/06/09 09:32:31;;;;;;;5.57;5.05;;;;;;;;;;5080656;28;20243;-52
2023/06/09 09:34:59;;;;;;;8.98;4.93;;;;;;;;;;5079443;28;20230;-54
2023/06/09 09:37:26;;;;;;;5.22;3.92;;;;;;;;;;5081043;28;20234;-52
2023/06/09 09:39:53;;;;;;;6.57;4.72;;;;;;;;;;5081711;28;20268;-53
2023/06/09 09:42:20;;;;;;;5.93;3.78;;;;;;;;;;5080058;28;20638;-51
2023/06/09 09:44:51;;;;;;;5.00;4.50;;;;;;;;;;5079669;28;20230;-51
2023/06/09 09:47:18;;;;;;;11.55;7.05;;;;;;;;;;5080467;28;20237;-53
2023/06/09 09:49:51;;;;;;;9.55;5.85;;;;;;;;;;5073209;28;20268;-52
2023/06/09 09:52:23;;;;;;;6.40;5.05;;;;;;;;;;5076455;28;20235;-51
2023/06/09 09:54:51;;;;;;;5.80;4.38;;;;;;;;;;5075764;28;20241;-54
2023/06/09 09:57:18;;;;;;;7.70;4.22;;;;;;;;;;5076063;28;20326;-52
2023/06/09 09:59:45;;;;;;;8.45;4.85;;;;;;;;;;5078219;28;20241;-51
2023/06/09 10:02:13;;;;;;;8.63;4.38;;;;;;;;;;5073847;28;20234;-52
2023/06/09 10:04:40;;;;;;;8.15;4.95;;;;;;;;;;5076016;28;20289;-52
2023/06/09 10:07:06;;;;;;;6.70;5.15;;;;;;;;;;5080839;28;20230;-52
2023/06/09 10:09:33;;;;;;;6.32;5.70;;;;;;;;;;5079132;28;20227;-52
2023/06/09 10:11:59;;;;;;;9.65;5.20;;;;;;;;;;5078405;28;20235;-51
2023/06/09 10:14:27;;;;;;;8.63;5.78;;;;;;;;;;5079858;28;20241;-52
2023/06/09 10:16:54;;;;;;;6.40;5.30;;;;;;;;;;5080342;28;20307;-52
2023/06/09 10:19:23;;;;;;;7.10;5.93;;;;;;;;;;5082119;28;20230;-50
2023/06/09 10:21:49;;;;;;;7.75;5.97;;;;;;;;;;5081443;28;20226;-53
2023/06/09 10:24:18;;;;;;;6.70;5.38;;;;;;;;;;5086686;28;20237;-51
2023/06/09 10:26:45;;;;;;;8.07;5.40;;;;;;;;;;5086023;28;23152;-52
2023/06/09 10:29:12;;;;;;;5.28;4.88;;;;;;;;;;5088214;28;20242;-52
2023/06/09 10:31:40;;;;;;;5.28;4.60;;;;;;;;;;5083722;28;20234;-51
2023/06/09 10:34:07;;;;;;;7.10;6.30;;;;;;;;;;5084801;28;20254;-52
2023/06/09 10:36:38;;;;;;;7.47;6.80;;;;;;;;;;5085724;28;20329;-52
2023/06/09 10:39:16;;;;;;;5.75;4.68;;;;;;;;;;5085855;28;20283;-52
2023/06/09 10:41:44;;;;;;;6.45;4.47;;;;;;;;;;5083666;28;20230;-51
2023/06/09 10:44:20;;;;;;;6.13;4.22;;;;;;;;;;5081301;28;20227;-54
2023/06/09 10:46:47;;;;;;;7.43;4.03;;;;;;;;;;5082719;28;20280;-52
2023/06/09 10:49:36;;;;;;;6.38;3.75;;;;;;;;;;5080870;28;20639;-52
2023/06/09 10:52:04;;;;;;;7.97;4.13;;;;;;;;;;5081518;28;20607;-51
2023/06/09 10:54:32;;;;;;;4.55;3.85;;;;;;;;;;5081233;28;20223;-52
2023/06/09 10:57:00;;;;;;;6.50;4.20;;;;;;;;;;5085468;28;20237;-51
2023/06/09 10:59:45;;;;;;;8.60;4.40;;;;;;;;;;5083712;28;20234;-52
2023/06/09 11:02:20;;;;;;;11.05;4.32;;;;;;;;;;5088942;28;20234;-52
2023/06/09 11:04:52;;;;;;;5.82;4.68;;;;;;;;;;5085682;28;20823;-52
2023/06/09 11:07:20;;;;;;;6.82;4.43;;;;;;;;;;5076069;28;20256;-51
2023/06/09 11:10:01;;;;;;;12.23;8.57;;;;;;;;;;5087303;28;20752;-52
2023/06/09 11:12:28;;;;;;;7.45;6.50;;;;;;;;;;5081323;28;20488;-53
2023/06/09 11:14:56;;;;;;;4.75;4.00;;;;;;;;;;5093360;28;20298;-54
2023/06/09 11:17:25;;;;;;;3.33;3.13;;;;;;;;;;5090377;28;20651;-55
2023/06/09 11:19:52;;;;;;;6.30;3.53;;;;;;;;;;5103135;28;20795;-52
2023/06/09 11:22:20;;;;;;;6.13;4.07;;;;;;;;;;5087818;28;20298;-52
2023/06/09 11:24:47;;;;;;;6.90;3.95;;;;;;;;;;5099199;28;20238;-53
2023/06/09 11:27:20;;;;;;;5.95;3.80;;;;;;;;;;5087149;28;20222;-52
2023/06/09 11:30:01;;;;;;;5.20;4.25;;;;;;;;;;5086825;28;20253;-51
2023/06/09 11:32:42;;;;;;;9.90;4.05;;;;;;;;;;5086361;28;20240;-53
2023/06/09 11:35:09;;;;;;;3.92;3.60;;;;;;;;;;5081754;28;20323;-52
2023/06/09 11:37:37;;;;;;;5.93;4.40;;;;;;;;;;5085221;28;20318;-52
2023/06/09 11:40:05;;;;;;;7.13;4.05;;;;;;;;;;5085173;28;20241;-51
2023/06/09 11:42:32;;;;;;;5.63;4.30;;;;;;;;;;5087156;28;20235;-52
2023/06/09 11:45:00;;;;;;;7.55;4.25;;;;;;;;;;5091785;28;20249;-52
2023/06/09 11:47:27;;;;;;;5.22;3.55;;;;;;;;;;5089910;28;20329;-51
2023/06/09 11:50:05;;;;;;;5.07;3.50;;;;;;;;;;5077865;28;20253;-50
2023/06/09 11:52:31;;;;;;;5.35;4.85;;;;;;;;;;5077215;28;20245;-53
2023/06/09 11:55:01;;;;;;;6.18;5.68;;;;;;;;;;5081747;28;20241;-51
2023/06/09 11:57:27;;;;;;;4.57;4.15;;;;;;;;;;5082875;27;20229;-51
2023/06/09 11:59:54;;;;;;;4.13;3.70;;;;;;;;;;5084936;28;20236;-52
2023/06/09 12:02:20;;;;;;;3.85;3.47;;;;;;;;;;5081699;28;20226;-53
2023/06/09 12:04:48;;;;;;;4.35;4.00;;;;;;;;;;5084875;28;20600;-51
2023/06/09 12:07:15;;;;;;;6.07;4.13;;;;;;;;;;5084444;28;20638;-52
2023/06/09 12:09:43;;;;;;;3.65;3.30;;;;;;;;;;5078608;28;20241;-52
2023/06/09 12:12:11;;;;;;;4.38;3.97;;;;;;;;;;5078770;28;20237;-52
2023/06/09 12:14:38;;;;;;;9.50;6.38;;;;;;;;;;5085053;28;20234;-51
2023/06/09 12:17:05;;;;;;;6.93;5.80;;;;;;;;;;5083077;28;20249;-52
2023/06/09 12:19:32;;;;;;;4.70;4.30;;;;;;;;;;5081202;28;20267;-51
2023/06/09 12:21:58;;;;;;;6.07;4.05;;;;;;;;;;5081939;28;20325;-51
2023/06/09 12:24:26;;;;;;;4.97;3.92;;;;;;;;;;5084578;28;20833;-52
2023/06/09 12:26:53;;;;;;;3.55;3.25;;;;;;;;;;5077449;28;20308;-52
2023/06/09 12:29:26;;;;;;;3.78;3.38;;;;;;;;;;5083043;28;20278;-50
2023/06/09 12:31:52;;;;;;;3.83;3.47;;;;;;;;;;5082798;28;20272;-53
2023/06/09 12:34:23;;;;;;;3.25;2.95;;;;;;;;;;5080771;28;20236;-51
2023/06/09 12:36:50;;;;;;;6.22;5.63;;;;;;;;;;5083765;28;20707;-51
2023/06/09 12:39:17;;;;;;;7.07;5.15;;;;;;;;;;5081297;28;20256;-52
2023/06/09 12:41:43;;;;;;;4.22;3.83;;;;;;;;;;5080518;28;20316;-52
2023/06/09 12:44:18;;;;;;;7.25;3.95;;;;;;;;;;5081337;28;20336;-50
2023/06/09 12:46:47;;;;;;;2.92;2.70;;;;;;;;;;5080001;28;20422;-52
2023/06/09 12:49:13;;;;;;;4.45;3.33;;;;;;;;;;5077870;28;20221;-51
2023/06/09 12:51:41;;;;;;;4.22;3.70;;;;;;;;;;5081896;28;20244;-51
2023/06/09 12:54:07;;;;;;;4.55;3.53;;;;;;;;;;5077811;28;20222;-51
2023/06/09 12:56:34;;;;;;;3.92;3.53;;;;;;;;;;5079944;28;20329;-50
2023/06/09 12:59:00;;;;;;;4.03;3.60;;;;;;;;;;5082965;28;20230;-53
2023/06/09 13:01:28;;;;;;;6.00;3.70;;;;;;;;;;5081016;28;20229;-51
2023/06/09 13:03:56;;;;;;;3.75;3.45;;;;;;;;;;5081756;28;20229;-54
2023/06/09 13:06:23;;;;;;;5.28;3.00;;;;;;;;;;5078435;28;20226;-50
2023/06/09 13:08:49;;;;;;;4.85;4.35;;;;;;;;;;5081826;28;20259;-53
2023/06/09 13:11:16;;;;;;;3.95;3.65;;;;;;;;;;5082002;28;20310;-52
2023/06/09 13:13:43;;;;;;;4.38;3.33;;;;;;;;;;5082776;28;20320;-51
2023/06/09 13:16:09;;;;;;;4.63;3.58;;;;;;;;;;5080998;28;20741;-51
2023/06/09 13:18:36;;;;;;;3.67;3.38;;;;;;;;;;5081195;28;20922;-51
2023/06/09 13:21:04;;;;;;;7.00;3.88;;;;;;;;;;5082905;28;20819;-51
2023/06/09 13:23:30;;;;;;;3.53;3.22;;;;;;;;;;5079662;28;20925;-51
2023/06/09 13:25:57;;;;;;;5.50;3.80;;;;;;;;;;5078588;28;20231;-52
2023/06/09 13:28:23;;;;;;;4.30;3.88;;;;;;;;;;5081000;28;20335;-52
2023/06/09 13:30:49;;;;;;;4.28;3.97;;;;;;;;;;5079022;28;20651;-52
2023/06/09 13:33:16;;;;;;;10.90;4.15;;;;;;;;;;5080993;28;20241;-53
2023/06/09 13:35:44;;;;;;;4.22;3.83;;;;;;;;;;5081774;28;20245;-51
2023/06/09 13:38:12;;;;;;;4.22;3.55;;;;;;;;;;5077424;28;20241;-51
2023/06/09 13:40:43;;;;;;;7.25;3.53;;;;;;;;;;5075434;28;20237;-52
2023/06/09 13:43:11;;;;;;;6.13;4.28;;;;;;;;;;5080071;28;20382;-52
2023/06/09 13:45:38;;;;;;;4.28;3.88;;;;;;;;;;5080903;28;20316;-51
2023/06/09 13:48:05;;;;;;;8.15;4.55;;;;;;;;;;5082202;28;20230;-51
2023/06/09 13:50:32;;;;;;;8.35;4.28;;;;;;;;;;5081459;28;20326;-52
2023/06/09 13:53:00;;;;;;;6.88;4.25;;;;;;;;;;5080320;28;20231;-51
2023/06/09 13:55:28;;;;;;;4.53;4.13;;;;;;;;;;5084707;28;20245;-52
2023/06/09 13:57:55;;;;;;;5.15;4.20;;;;;;;;;;5092420;28;20257;-51
2023/06/09 14:00:21;;;;;;;5.68;4.18;;;;;;;;;;5095732;28;20260;-51
2023/06/09 14:02:48;;;;;;;5.00;4.60;;;;;;;;;;5095118;28;20284;-50
2023/06/09 14:05:15;;;;;;;5.30;4.05;;;;;;;;;;5099398;28;20222;-52
2023/06/09 14:07:42;;;;;;;5.55;3.80;;;;;;;;;;5081440;28;20242;-50
2023/06/09 14:10:10;;;;;;;4.35;3.95;;;;;;;;;;5083761;28;20754;-50
2023/06/09 14:12:38;;;;;;;4.07;3.53;;;;;;;;;;5082349;28;20739;-50
2023/06/09 14:15:06;;;;;;;3.88;3.58;;;;;;;;;;5086319;27;20257;-52
2023/06/09 14:17:32;;;;;;;5.18;3.72;;;;;;;;;;5087051;28;20245;-53
2023/06/09 14:19:59;;;;;;;4.55;4.15;;;;;;;;;;5087767;28;20973;-52
2023/06/09 14:22:25;;;;;;;5.10;3.38;;;;;;;;;;5087502;28;20235;-52
2023/06/09 14:24:52;;;;;;;4.40;4.10;;;;;;;;;;5085090;28;20884;-51
2023/06/09 14:27:18;;;;;;;4.25;3.80;;;;;;;;;;5081684;28;20648;-52
2023/06/09 14:29:46;;;;;;;4.07;3.78;;;;;;;;;;5078392;28;20257;-52
2023/06/09 14:32:12;;;;;;;3.83;3.53;;;;;;;;;;5084306;28;20726;-52
2023/06/09 14:34:38;;;;;;;3.95;3.63;;;;;;;;;;5085674;28;20246;-52
2023/06/09 14:37:05;;;;;;;4.63;3.47;;;;;;;;;;5082589;28;20230;-51
2023/06/09 14:39:32;;;;;;;4.30;3.90;;;;;;;;;;5081891;28;20307;-53
2023/06/09 14:41:58;;;;;;;4.50;4.07;;;;;;;;;;5077311;28;20240;-53
2023/06/09 14:44:24;;;;;;;4.35;3.65;;;;;;;;;;5084898;28;20230;-52
2023/06/09 14:46:52;;;;;;;4.70;3.88;;;;;;;;;;5083352;28;20883;-51